sensor_id;sensor_type;location;lat;lon;timestamp;P1;durP1;ratioP1;P2;durP2;ratioP2
61017;SDS011;48171;51.550;5.434;2022-12-18T00:02:19;75.68;;;24.75;;
61017;SDS011;48171;51.550;5.434;2022-12-18T00:04:44;85.55;;;24.55;;
61017;SDS011;48171;51.550;5.434;2022-12-18T00:07:10;85.65;;;25.30;;
61017;SDS011;48171;51.550;5.434;2022-12-18T00:09:35;85.70;;;26.65;;
61017;SDS011;48171;51.550;5.434;2022-12-18T00:12:00;81.53;;;24.23;;
61017;SDS011;48171;51.550;5.434;2022-12-18T00:14:26;78.28;;;26.13;;
61017;SDS011;48171;51.550;5.434;2022-12-18T00:16:51;63.97;;;21.90;;
61017;SDS011;48171;51.550;5.434;2022-12-18T00:19:16;86.78;;;25.63;;
61017;SDS011;48171;51.550;5.434;2022-12-18T00:21:42;79.55;;;25.58;;
61017;SDS011;48171;51.550;5.434;2022-12-18T00:24:08;89.95;;;27.05;;
61017;SDS011;48171;51.550;5.434;2022-12-18T00:26:36;80.28;;;27.25;;
61017;SDS011;48171;51.550;5.434;2022-12-18T00:29:03;90.40;;;28.00;;
61017;SDS011;48171;51.550;5.434;2022-12-18T00:31:35;88.03;;;26.95;;
61017;SDS011;48171;51.550;5.434;2022-12-18T00:34:01;82.70;;;25.30;;
61017;SDS011;48171;51.550;5.434;2022-12-18T00:36:29;91.28;;;26.95;;
61017;SDS011;48171;51.550;5.434;2022-12-18T00:38:57;93.70;;;26.13;;
61017;SDS011;48171;51.550;5.434;2022-12-18T00:41:23;88.20;;;25.73;;
61017;SDS011;48171;51.550;5.434;2022-12-18T00:44:09;82.75;;;26.33;;
61017;SDS011;48171;51.550;5.434;2022-12-18T00:46:36;78.13;;;25.05;;
61017;SDS011;48171;51.550;5.434;2022-12-18T00:49:01;84.43;;;26.17;;
61017;SDS011;48171;51.550;5.434;2022-12-18T00:51:27;79.13;;;24.73;;
61017;SDS011;48171;51.550;5.434;2022-12-18T00:53:52;84.55;;;26.33;;
61017;SDS011;48171;51.550;5.434;2022-12-18T00:56:18;85.18;;;26.23;;
61017;SDS011;48171;51.550;5.434;2022-12-18T00:58:43;77.53;;;25.27;;
61017;SDS011;48171;51.550;5.434;2022-12-18T01:01:08;83.32;;;24.25;;
61017;SDS011;48171;51.550;5.434;2022-12-18T01:03:33;82.13;;;25.48;;
61017;SDS011;48171;51.550;5.434;2022-12-18T01:05:59;93.13;;;25.80;;
61017;SDS011;48171;51.550;5.434;2022-12-18T01:08:24;80.45;;;26.25;;
61017;SDS011;48171;51.550;5.434;2022-12-18T01:10:49;78.80;;;25.08;;
61017;SDS011;48171;51.550;5.434;2022-12-18T01:13:15;75.18;;;24.67;;
61017;SDS011;48171;51.550;5.434;2022-12-18T01:15:40;79.20;;;24.98;;
61017;SDS011;48171;51.550;5.434;2022-12-18T01:18:12;85.57;;;27.42;;
61017;SDS011;48171;51.550;5.434;2022-12-18T01:20:37;83.18;;;25.00;;
61017;SDS011;48171;51.550;5.434;2022-12-18T01:23:03;83.57;;;25.30;;
61017;SDS011;48171;51.550;5.434;2022-12-18T01:25:28;80.13;;;26.95;;
61017;SDS011;48171;51.550;5.434;2022-12-18T01:27:53;71.88;;;24.50;;
61017;SDS011;48171;51.550;5.434;2022-12-18T01:30:18;80.57;;;26.20;;
61017;SDS011;48171;51.550;5.434;2022-12-18T01:32:44;73.85;;;24.92;;
61017;SDS011;48171;51.550;5.434;2022-12-18T01:35:09;77.90;;;24.05;;
61017;SDS011;48171;51.550;5.434;2022-12-18T01:37:34;74.25;;;25.15;;
61017;SDS011;48171;51.550;5.434;2022-12-18T01:39:59;73.57;;;24.10;;
61017;SDS011;48171;51.550;5.434;2022-12-18T01:42:25;72.70;;;23.75;;
61017;SDS011;48171;51.550;5.434;2022-12-18T01:44:58;68.68;;;24.33;;
61017;SDS011;48171;51.550;5.434;2022-12-18T01:47:33;72.38;;;24.00;;
61017;SDS011;48171;51.550;5.434;2022-12-18T01:50:00;82.60;;;26.05;;
61017;SDS011;48171;51.550;5.434;2022-12-18T01:52:35;76.90;;;23.83;;
61017;SDS011;48171;51.550;5.434;2022-12-18T01:55:02;73.88;;;23.35;;
61017;SDS011;48171;51.550;5.434;2022-12-18T01:57:29;70.47;;;26.13;;
61017;SDS011;48171;51.550;5.434;2022-12-18T01:59:57;73.75;;;23.42;;
61017;SDS011;48171;51.550;5.434;2022-12-18T02:02:26;76.95;;;24.77;;
61017;SDS011;48171;51.550;5.434;2022-12-18T02:04:53;67.63;;;22.85;;
61017;SDS011;48171;51.550;5.434;2022-12-18T02:07:24;68.90;;;24.30;;
61017;SDS011;48171;51.550;5.434;2022-12-18T02:10:27;67.85;;;23.45;;
61017;SDS011;48171;51.550;5.434;2022-12-18T02:13:02;78.22;;;23.65;;
61017;SDS011;48171;51.550;5.434;2022-12-18T02:18:33;66.90;;;23.35;;
61017;SDS011;48171;51.550;5.434;2022-12-18T02:23:54;71.40;;;24.95;;
61017;SDS011;48171;51.550;5.434;2022-12-18T02:26:36;67.97;;;24.23;;
61017;SDS011;48171;51.550;5.434;2022-12-18T02:29:10;83.10;;;23.92;;
61017;SDS011;48171;51.550;5.434;2022-12-18T02:31:39;71.43;;;23.25;;
61017;SDS011;48171;51.550;5.434;2022-12-18T02:34:10;66.50;;;23.58;;
61017;SDS011;48171;51.550;5.434;2022-12-18T02:36:38;65.53;;;23.77;;
61017;SDS011;48171;51.550;5.434;2022-12-18T02:39:07;65.95;;;22.70;;
61017;SDS011;48171;51.550;5.434;2022-12-18T02:41:35;71.82;;;22.90;;
61017;SDS011;48171;51.550;5.434;2022-12-18T02:44:02;68.78;;;24.33;;
61017;SDS011;48171;51.550;5.434;2022-12-18T02:46:40;69.70;;;23.55;;
61017;SDS011;48171;51.550;5.434;2022-12-18T02:49:13;71.97;;;23.85;;
61017;SDS011;48171;51.550;5.434;2022-12-18T02:51:49;64.28;;;23.08;;
61017;SDS011;48171;51.550;5.434;2022-12-18T02:57:10;61.55;;;22.27;;
61017;SDS011;48171;51.550;5.434;2022-12-18T02:59:46;72.43;;;21.92;;
61017;SDS011;48171;51.550;5.434;2022-12-18T03:02:37;62.30;;;22.20;;
61017;SDS011;48171;51.550;5.434;2022-12-18T03:05:14;70.57;;;21.98;;
61017;SDS011;48171;51.550;5.434;2022-12-18T03:10:33;61.35;;;21.13;;
61017;SDS011;48171;51.550;5.434;2022-12-18T03:13:08;64.85;;;21.77;;
61017;SDS011;48171;51.550;5.434;2022-12-18T03:15:39;67.43;;;22.25;;
61017;SDS011;48171;51.550;5.434;2022-12-18T03:18:21;70.90;;;22.58;;
61017;SDS011;48171;51.550;5.434;2022-12-18T03:20:50;64.30;;;21.67;;
61017;SDS011;48171;51.550;5.434;2022-12-18T03:23:19;64.78;;;21.88;;
61017;SDS011;48171;51.550;5.434;2022-12-18T03:25:47;67.55;;;21.85;;
61017;SDS011;48171;51.550;5.434;2022-12-18T03:28:19;60.92;;;21.40;;
61017;SDS011;48171;51.550;5.434;2022-12-18T03:30:46;59.08;;;21.05;;
61017;SDS011;48171;51.550;5.434;2022-12-18T03:33:20;61.45;;;22.90;;
61017;SDS011;48171;51.550;5.434;2022-12-18T03:36:09;59.63;;;21.35;;
61017;SDS011;48171;51.550;5.434;2022-12-18T03:38:34;68.43;;;22.42;;
61017;SDS011;48171;51.550;5.434;2022-12-18T03:41:06;60.22;;;20.48;;
61017;SDS011;48171;51.550;5.434;2022-12-18T03:43:43;65.68;;;20.67;;
61017;SDS011;48171;51.550;5.434;2022-12-18T03:49:34;58.55;;;20.48;;
61017;SDS011;48171;51.550;5.434;2022-12-18T03:52:03;54.83;;;21.05;;
61017;SDS011;48171;51.550;5.434;2022-12-18T03:54:32;58.45;;;21.98;;
61017;SDS011;48171;51.550;5.434;2022-12-18T03:57:21;66.90;;;22.27;;
61017;SDS011;48171;51.550;5.434;2022-12-18T03:59:49;58.33;;;21.92;;
61017;SDS011;48171;51.550;5.434;2022-12-18T04:02:18;58.85;;;20.75;;
61017;SDS011;48171;51.550;5.434;2022-12-18T04:04:43;59.45;;;21.42;;
61017;SDS011;48171;51.550;5.434;2022-12-18T04:07:12;62.30;;;21.13;;
61017;SDS011;48171;51.550;5.434;2022-12-18T04:09:38;55.58;;;20.45;;
61017;SDS011;48171;51.550;5.434;2022-12-18T04:12:06;52.97;;;20.00;;
61017;SDS011;48171;51.550;5.434;2022-12-18T04:14:33;52.80;;;20.77;;
61017;SDS011;48171;51.550;5.434;2022-12-18T04:17:00;58.70;;;19.98;;
61017;SDS011;48171;51.550;5.434;2022-12-18T04:19:26;54.13;;;19.98;;
61017;SDS011;48171;51.550;5.434;2022-12-18T04:21:51;58.10;;;19.35;;
61017;SDS011;48171;51.550;5.434;2022-12-18T04:24:17;60.95;;;19.88;;
61017;SDS011;48171;51.550;5.434;2022-12-18T04:26:42;57.05;;;19.15;;
61017;SDS011;48171;51.550;5.434;2022-12-18T04:29:07;49.20;;;18.83;;
61017;SDS011;48171;51.550;5.434;2022-12-18T04:31:32;53.15;;;19.48;;
61017;SDS011;48171;51.550;5.434;2022-12-18T04:33:58;54.97;;;17.75;;
61017;SDS011;48171;51.550;5.434;2022-12-18T04:36:23;56.42;;;19.95;;
61017;SDS011;48171;51.550;5.434;2022-12-18T04:38:48;51.85;;;17.83;;
61017;SDS011;48171;51.550;5.434;2022-12-18T04:41:14;55.55;;;18.77;;
61017;SDS011;48171;51.550;5.434;2022-12-18T04:43:39;53.58;;;18.10;;
61017;SDS011;48171;51.550;5.434;2022-12-18T04:46:05;54.55;;;19.10;;
61017;SDS011;48171;51.550;5.434;2022-12-18T04:48:31;50.55;;;18.83;;
61017;SDS011;48171;51.550;5.434;2022-12-18T04:50:57;54.53;;;20.63;;
61017;SDS011;48171;51.550;5.434;2022-12-18T04:53:22;45.13;;;18.02;;
61017;SDS011;48171;51.550;5.434;2022-12-18T04:55:47;50.53;;;17.75;;
61017;SDS011;48171;51.550;5.434;2022-12-18T04:58:13;46.45;;;17.52;;
61017;SDS011;48171;51.550;5.434;2022-12-18T05:00:38;47.83;;;19.20;;
61017;SDS011;48171;51.550;5.434;2022-12-18T05:03:03;45.90;;;18.95;;
61017;SDS011;48171;51.550;5.434;2022-12-18T05:05:29;43.00;;;17.50;;
61017;SDS011;48171;51.550;5.434;2022-12-18T05:07:54;45.80;;;16.60;;
61017;SDS011;48171;51.550;5.434;2022-12-18T05:10:19;52.15;;;17.58;;
61017;SDS011;48171;51.550;5.434;2022-12-18T05:12:44;54.72;;;18.08;;
61017;SDS011;48171;51.550;5.434;2022-12-18T05:15:28;40.47;;;16.95;;
61017;SDS011;48171;51.550;5.434;2022-12-18T05:17:54;47.75;;;17.15;;
61017;SDS011;48171;51.550;5.434;2022-12-18T05:20:20;42.90;;;17.77;;
61017;SDS011;48171;51.550;5.434;2022-12-18T05:22:45;54.13;;;17.60;;
61017;SDS011;48171;51.550;5.434;2022-12-18T05:25:11;49.22;;;17.00;;
61017;SDS011;48171;51.550;5.434;2022-12-18T05:27:36;51.08;;;17.23;;
61017;SDS011;48171;51.550;5.434;2022-12-18T05:30:01;46.08;;;17.55;;
61017;SDS011;48171;51.550;5.434;2022-12-18T05:32:27;48.30;;;17.05;;
61017;SDS011;48171;51.550;5.434;2022-12-18T05:34:53;44.05;;;17.67;;
61017;SDS011;48171;51.550;5.434;2022-12-18T05:37:18;45.67;;;15.95;;
61017;SDS011;48171;51.550;5.434;2022-12-18T05:39:43;47.72;;;16.90;;
61017;SDS011;48171;51.550;5.434;2022-12-18T05:42:09;47.13;;;16.90;;
61017;SDS011;48171;51.550;5.434;2022-12-18T05:44:34;43.85;;;16.10;;
61017;SDS011;48171;51.550;5.434;2022-12-18T05:47:00;48.92;;;17.63;;
61017;SDS011;48171;51.550;5.434;2022-12-18T05:49:25;40.30;;;17.42;;
61017;SDS011;48171;51.550;5.434;2022-12-18T05:51:51;47.47;;;17.00;;
61017;SDS011;48171;51.550;5.434;2022-12-18T05:54:16;48.00;;;15.63;;
61017;SDS011;48171;51.550;5.434;2022-12-18T05:56:41;43.88;;;16.23;;
61017;SDS011;48171;51.550;5.434;2022-12-18T05:59:06;40.35;;;16.23;;
61017;SDS011;48171;51.550;5.434;2022-12-18T06:01:32;40.35;;;16.98;;
61017;SDS011;48171;51.550;5.434;2022-12-18T06:03:57;46.13;;;16.48;;
61017;SDS011;48171;51.550;5.434;2022-12-18T06:06:23;47.13;;;17.50;;
61017;SDS011;48171;51.550;5.434;2022-12-18T06:08:51;45.58;;;17.02;;
61017;SDS011;48171;51.550;5.434;2022-12-18T06:11:18;44.67;;;16.45;;
61017;SDS011;48171;51.550;5.434;2022-12-18T06:13:49;42.75;;;16.23;;
61017;SDS011;48171;51.550;5.434;2022-12-18T06:16:15;43.92;;;17.08;;
61017;SDS011;48171;51.550;5.434;2022-12-18T06:18:41;42.67;;;16.60;;
61017;SDS011;48171;51.550;5.434;2022-12-18T06:21:06;42.83;;;16.42;;
61017;SDS011;48171;51.550;5.434;2022-12-18T06:23:31;39.20;;;15.13;;
61017;SDS011;48171;51.550;5.434;2022-12-18T06:25:57;47.15;;;15.88;;
61017;SDS011;48171;51.550;5.434;2022-12-18T06:28:22;45.65;;;16.05;;
61017;SDS011;48171;51.550;5.434;2022-12-18T06:30:47;48.92;;;15.60;;
61017;SDS011;48171;51.550;5.434;2022-12-18T06:33:13;46.10;;;16.00;;
61017;SDS011;48171;51.550;5.434;2022-12-18T06:35:40;44.38;;;15.40;;
61017;SDS011;48171;51.550;5.434;2022-12-18T06:38:05;41.17;;;15.05;;
61017;SDS011;48171;51.550;5.434;2022-12-18T06:40:31;42.20;;;15.20;;
61017;SDS011;48171;51.550;5.434;2022-12-18T06:42:56;44.13;;;16.92;;
61017;SDS011;48171;51.550;5.434;2022-12-18T06:45:22;37.78;;;14.23;;
61017;SDS011;48171;51.550;5.434;2022-12-18T06:47:48;42.53;;;16.05;;
61017;SDS011;48171;51.550;5.434;2022-12-18T06:50:13;45.90;;;16.30;;
61017;SDS011;48171;51.550;5.434;2022-12-18T06:52:38;44.10;;;15.00;;
61017;SDS011;48171;51.550;5.434;2022-12-18T06:55:05;47.95;;;17.23;;
61017;SDS011;48171;51.550;5.434;2022-12-18T06:57:34;40.13;;;16.38;;
61017;SDS011;48171;51.550;5.434;2022-12-18T06:59:59;38.30;;;15.13;;
61017;SDS011;48171;51.550;5.434;2022-12-18T07:02:25;47.50;;;15.90;;
61017;SDS011;48171;51.550;5.434;2022-12-18T07:04:50;42.65;;;14.82;;
61017;SDS011;48171;51.550;5.434;2022-12-18T07:07:15;48.13;;;17.38;;
61017;SDS011;48171;51.550;5.434;2022-12-18T07:09:41;41.70;;;15.73;;
61017;SDS011;48171;51.550;5.434;2022-12-18T07:12:06;41.30;;;15.32;;
61017;SDS011;48171;51.550;5.434;2022-12-18T07:14:32;44.05;;;16.63;;
61017;SDS011;48171;51.550;5.434;2022-12-18T07:16:58;42.30;;;16.52;;
61017;SDS011;48171;51.550;5.434;2022-12-18T07:19:23;45.90;;;15.05;;
61017;SDS011;48171;51.550;5.434;2022-12-18T07:21:49;45.58;;;15.40;;
61017;SDS011;48171;51.550;5.434;2022-12-18T07:24:15;43.40;;;15.93;;
61017;SDS011;48171;51.550;5.434;2022-12-18T07:26:40;45.78;;;16.73;;
61017;SDS011;48171;51.550;5.434;2022-12-18T07:29:06;43.03;;;17.52;;
61017;SDS011;48171;51.550;5.434;2022-12-18T07:31:31;46.85;;;16.35;;
61017;SDS011;48171;51.550;5.434;2022-12-18T07:33:56;54.60;;;17.85;;
61017;SDS011;48171;51.550;5.434;2022-12-18T07:36:21;51.80;;;18.33;;
61017;SDS011;48171;51.550;5.434;2022-12-18T07:38:48;49.75;;;17.35;;
61017;SDS011;48171;51.550;5.434;2022-12-18T07:41:14;43.85;;;17.15;;
61017;SDS011;48171;51.550;5.434;2022-12-18T07:43:40;47.78;;;17.27;;
61017;SDS011;48171;51.550;5.434;2022-12-18T07:46:06;48.70;;;18.08;;
61017;SDS011;48171;51.550;5.434;2022-12-18T07:48:33;44.53;;;16.52;;
61017;SDS011;48171;51.550;5.434;2022-12-18T07:51:02;46.58;;;17.48;;
61017;SDS011;48171;51.550;5.434;2022-12-18T07:53:30;50.80;;;18.58;;
61017;SDS011;48171;51.550;5.434;2022-12-18T07:55:56;47.75;;;17.13;;
61017;SDS011;48171;51.550;5.434;2022-12-18T07:58:22;49.13;;;18.42;;
61017;SDS011;48171;51.550;5.434;2022-12-18T08:00:48;48.78;;;17.02;;
61017;SDS011;48171;51.550;5.434;2022-12-18T08:03:13;50.70;;;18.95;;
61017;SDS011;48171;51.550;5.434;2022-12-18T08:05:38;45.67;;;18.52;;
61017;SDS011;48171;51.550;5.434;2022-12-18T08:08:04;47.20;;;18.05;;
61017;SDS011;48171;51.550;5.434;2022-12-18T08:10:29;48.58;;;17.95;;
61017;SDS011;48171;51.550;5.434;2022-12-18T08:12:54;47.08;;;18.33;;
61017;SDS011;48171;51.550;5.434;2022-12-18T08:15:20;49.63;;;18.35;;
61017;SDS011;48171;51.550;5.434;2022-12-18T08:17:45;44.88;;;18.27;;
61017;SDS011;48171;51.550;5.434;2022-12-18T08:20:10;51.30;;;18.60;;
61017;SDS011;48171;51.550;5.434;2022-12-18T08:22:37;51.17;;;19.02;;
61017;SDS011;48171;51.550;5.434;2022-12-18T08:25:03;56.75;;;19.55;;
61017;SDS011;48171;51.550;5.434;2022-12-18T08:27:28;47.00;;;16.67;;
61017;SDS011;48171;51.550;5.434;2022-12-18T08:29:54;53.35;;;18.02;;
61017;SDS011;48171;51.550;5.434;2022-12-18T08:32:20;49.03;;;17.50;;
61017;SDS011;48171;51.550;5.434;2022-12-18T08:34:45;46.03;;;17.58;;
61017;SDS011;48171;51.550;5.434;2022-12-18T08:37:10;44.40;;;17.15;;
61017;SDS011;48171;51.550;5.434;2022-12-18T08:39:36;47.92;;;18.48;;
61017;SDS011;48171;51.550;5.434;2022-12-18T08:42:01;54.60;;;18.30;;
61017;SDS011;48171;51.550;5.434;2022-12-18T08:44:45;48.35;;;17.92;;
61017;SDS011;48171;51.550;5.434;2022-12-18T08:47:10;53.90;;;18.52;;
61017;SDS011;48171;51.550;5.434;2022-12-18T08:49:35;50.58;;;18.02;;
61017;SDS011;48171;51.550;5.434;2022-12-18T08:52:01;45.35;;;17.27;;
61017;SDS011;48171;51.550;5.434;2022-12-18T08:54:27;52.58;;;18.65;;
61017;SDS011;48171;51.550;5.434;2022-12-18T08:56:53;50.60;;;17.65;;
61017;SDS011;48171;51.550;5.434;2022-12-18T08:59:18;49.60;;;18.55;;
61017;SDS011;48171;51.550;5.434;2022-12-18T09:01:44;50.90;;;19.25;;
61017;SDS011;48171;51.550;5.434;2022-12-18T09:04:10;53.95;;;19.85;;
61017;SDS011;48171;51.550;5.434;2022-12-18T09:06:36;54.75;;;19.23;;
61017;SDS011;48171;51.550;5.434;2022-12-18T09:09:02;53.92;;;20.15;;
61017;SDS011;48171;51.550;5.434;2022-12-18T09:11:31;50.90;;;19.02;;
61017;SDS011;48171;51.550;5.434;2022-12-18T09:13:57;50.30;;;18.02;;
61017;SDS011;48171;51.550;5.434;2022-12-18T09:16:24;59.63;;;21.02;;
61017;SDS011;48171;51.550;5.434;2022-12-18T09:18:50;56.40;;;19.88;;
61017;SDS011;48171;51.550;5.434;2022-12-18T09:21:17;52.10;;;18.85;;
61017;SDS011;48171;51.550;5.434;2022-12-18T09:23:54;46.92;;;18.27;;
61017;SDS011;48171;51.550;5.434;2022-12-18T09:26:20;49.97;;;19.35;;
61017;SDS011;48171;51.550;5.434;2022-12-18T09:28:47;50.30;;;18.83;;
61017;SDS011;48171;51.550;5.434;2022-12-18T09:31:12;59.80;;;19.92;;
61017;SDS011;48171;51.550;5.434;2022-12-18T09:33:38;60.63;;;20.10;;
61017;SDS011;48171;51.550;5.434;2022-12-18T09:36:04;49.53;;;19.15;;
61017;SDS011;48171;51.550;5.434;2022-12-18T09:38:31;57.95;;;20.48;;
61017;SDS011;48171;51.550;5.434;2022-12-18T09:40:59;53.08;;;18.95;;
61017;SDS011;48171;51.550;5.434;2022-12-18T09:43:31;49.72;;;19.50;;
61017;SDS011;48171;51.550;5.434;2022-12-18T09:46:03;52.97;;;18.73;;
61017;SDS011;48171;51.550;5.434;2022-12-18T09:48:39;50.25;;;19.65;;
61017;SDS011;48171;51.550;5.434;2022-12-18T09:51:11;51.60;;;19.27;;
61017;SDS011;48171;51.550;5.434;2022-12-18T09:53:40;49.63;;;19.60;;
61017;SDS011;48171;51.550;5.434;2022-12-18T09:56:11;53.58;;;19.27;;
61017;SDS011;48171;51.550;5.434;2022-12-18T09:58:41;53.67;;;19.73;;
61017;SDS011;48171;51.550;5.434;2022-12-18T10:01:18;50.17;;;19.25;;
61017;SDS011;48171;51.550;5.434;2022-12-18T10:03:47;52.88;;;19.77;;
61017;SDS011;48171;51.550;5.434;2022-12-18T10:11:56;51.58;;;19.20;;
61017;SDS011;48171;51.550;5.434;2022-12-18T10:26:00;47.63;;;19.30;;
61017;SDS011;48171;51.550;5.434;2022-12-18T10:28:29;57.45;;;21.70;;
61017;SDS011;48171;51.550;5.434;2022-12-18T10:30:56;55.15;;;20.45;;
61017;SDS011;48171;51.550;5.434;2022-12-18T10:33:22;50.13;;;19.83;;
61017;SDS011;48171;51.550;5.434;2022-12-18T10:35:52;59.42;;;20.90;;
61017;SDS011;48171;51.550;5.434;2022-12-18T10:40:58;50.50;;;20.83;;
61017;SDS011;48171;51.550;5.434;2022-12-18T10:43:31;53.08;;;19.52;;
61017;SDS011;48171;51.550;5.434;2022-12-18T10:46:02;55.13;;;20.65;;
61017;SDS011;48171;51.550;5.434;2022-12-18T10:48:30;58.28;;;19.55;;
61017;SDS011;48171;51.550;5.434;2022-12-18T10:50:57;49.13;;;18.58;;
61017;SDS011;48171;51.550;5.434;2022-12-18T10:53:24;53.03;;;20.83;;
61017;SDS011;48171;51.550;5.434;2022-12-18T10:55:52;59.47;;;22.42;;
61017;SDS011;48171;51.550;5.434;2022-12-18T11:03:38;50.40;;;20.13;;
61017;SDS011;48171;51.550;5.434;2022-12-18T11:06:10;59.45;;;21.67;;
61017;SDS011;48171;51.550;5.434;2022-12-18T11:08:40;56.75;;;18.77;;
61017;SDS011;48171;51.550;5.434;2022-12-18T11:11:15;51.92;;;20.25;;
61017;SDS011;48171;51.550;5.434;2022-12-18T11:13:54;50.00;;;20.33;;
61017;SDS011;48171;51.550;5.434;2022-12-18T11:16:26;54.70;;;20.17;;
61017;SDS011;48171;51.550;5.434;2022-12-18T11:18:52;54.28;;;20.17;;
61017;SDS011;48171;51.550;5.434;2022-12-18T11:21:18;56.30;;;19.83;;
61017;SDS011;48171;51.550;5.434;2022-12-18T11:23:46;52.63;;;18.60;;
61017;SDS011;48171;51.550;5.434;2022-12-18T11:26:16;52.70;;;20.17;;
61017;SDS011;48171;51.550;5.434;2022-12-18T11:29:07;51.78;;;19.95;;
61017;SDS011;48171;51.550;5.434;2022-12-18T11:31:34;53.10;;;19.35;;
61017;SDS011;48171;51.550;5.434;2022-12-18T11:36:35;54.05;;;19.88;;
61017;SDS011;48171;51.550;5.434;2022-12-18T11:39:10;51.63;;;19.80;;
61017;SDS011;48171;51.550;5.434;2022-12-18T11:41:52;54.03;;;19.15;;
61017;SDS011;48171;51.550;5.434;2022-12-18T11:44:47;52.75;;;19.98;;
61017;SDS011;48171;51.550;5.434;2022-12-18T11:47:21;48.60;;;20.17;;
61017;SDS011;48171;51.550;5.434;2022-12-18T11:50:03;49.63;;;19.27;;
61017;SDS011;48171;51.550;5.434;2022-12-18T11:52:38;53.40;;;20.17;;
61017;SDS011;48171;51.550;5.434;2022-12-18T11:58:07;49.72;;;19.63;;
61017;SDS011;48171;51.550;5.434;2022-12-18T12:00:35;44.95;;;20.05;;
61017;SDS011;48171;51.550;5.434;2022-12-18T12:08:47;50.95;;;19.50;;
61017;SDS011;48171;51.550;5.434;2022-12-18T12:14:07;50.90;;;19.92;;
61017;SDS011;48171;51.550;5.434;2022-12-18T12:22:09;61.42;;;21.38;;
61017;SDS011;48171;51.550;5.434;2022-12-18T12:24:47;49.65;;;19.63;;
61017;SDS011;48171;51.550;5.434;2022-12-18T12:27:42;53.45;;;19.60;;
61017;SDS011;48171;51.550;5.434;2022-12-18T12:36:02;50.08;;;20.13;;
61017;SDS011;48171;51.550;5.434;2022-12-18T12:38:49;51.90;;;19.48;;
61017;SDS011;48171;51.550;5.434;2022-12-18T12:41:21;45.75;;;18.70;;
61017;SDS011;48171;51.550;5.434;2022-12-18T12:44:13;46.50;;;19.40;;
61017;SDS011;48171;51.550;5.434;2022-12-18T12:46:43;53.30;;;19.35;;
61017;SDS011;48171;51.550;5.434;2022-12-18T12:49:10;51.83;;;19.65;;
61017;SDS011;48171;51.550;5.434;2022-12-18T12:51:40;53.97;;;21.15;;
61017;SDS011;48171;51.550;5.434;2022-12-18T12:54:12;50.97;;;19.77;;
61017;SDS011;48171;51.550;5.434;2022-12-18T12:56:47;47.97;;;21.20;;
61017;SDS011;48171;51.550;5.434;2022-12-18T12:59:37;52.60;;;19.83;;
61017;SDS011;48171;51.550;5.434;2022-12-18T13:04:57;51.15;;;19.10;;
61017;SDS011;48171;51.550;5.434;2022-12-18T13:20:33;50.83;;;19.70;;
61017;SDS011;48171;51.550;5.434;2022-12-18T13:23:01;53.47;;;18.65;;
61017;SDS011;48171;51.550;5.434;2022-12-18T13:25:44;49.88;;;19.58;;
61017;SDS011;48171;51.550;5.434;2022-12-18T13:28:13;49.88;;;19.10;;
61017;SDS011;48171;51.550;5.434;2022-12-18T13:30:43;55.35;;;19.95;;
61017;SDS011;48171;51.550;5.434;2022-12-18T13:36:02;50.78;;;18.77;;
61017;SDS011;48171;51.550;5.434;2022-12-18T13:38:38;50.80;;;19.15;;
61017;SDS011;48171;51.550;5.434;2022-12-18T13:41:21;42.78;;;18.30;;
61017;SDS011;48171;51.550;5.434;2022-12-18T13:43:55;60.63;;;21.25;;
61017;SDS011;48171;51.550;5.434;2022-12-18T13:46:47;49.13;;;19.20;;
61017;SDS011;48171;51.550;5.434;2022-12-18T13:49:24;48.72;;;18.77;;
61017;SDS011;48171;51.550;5.434;2022-12-18T13:51:55;50.25;;;19.02;;
61017;SDS011;48171;51.550;5.434;2022-12-18T13:54:34;51.30;;;19.67;;
61017;SDS011;48171;51.550;5.434;2022-12-18T13:57:01;46.90;;;19.20;;
61017;SDS011;48171;51.550;5.434;2022-12-18T13:59:38;51.70;;;19.70;;
61017;SDS011;48171;51.550;5.434;2022-12-18T14:02:12;53.72;;;19.70;;
61017;SDS011;48171;51.550;5.434;2022-12-18T14:04:40;50.03;;;18.65;;
61017;SDS011;48171;51.550;5.434;2022-12-18T14:07:19;51.55;;;17.85;;
61017;SDS011;48171;51.550;5.434;2022-12-18T14:09:46;52.80;;;18.57;;
61017;SDS011;48171;51.550;5.434;2022-12-18T14:12:14;47.72;;;18.70;;
61017;SDS011;48171;51.550;5.434;2022-12-18T14:15:00;60.15;;;20.00;;
61017;SDS011;48171;51.550;5.434;2022-12-18T14:17:26;45.67;;;18.08;;
61017;SDS011;48171;51.550;5.434;2022-12-18T14:19:53;49.33;;;17.90;;
61017;SDS011;48171;51.550;5.434;2022-12-18T14:22:28;45.65;;;18.25;;
61017;SDS011;48171;51.550;5.434;2022-12-18T14:27:42;45.05;;;18.33;;
61017;SDS011;48171;51.550;5.434;2022-12-18T14:33:05;46.25;;;18.85;;
61017;SDS011;48171;51.550;5.434;2022-12-18T14:35:33;51.75;;;19.50;;
61017;SDS011;48171;51.550;5.434;2022-12-18T14:40:43;51.55;;;19.95;;
61017;SDS011;48171;51.550;5.434;2022-12-18T14:43:11;44.83;;;19.05;;
61017;SDS011;48171;51.550;5.434;2022-12-18T14:45:41;51.33;;;19.27;;
61017;SDS011;48171;51.550;5.434;2022-12-18T14:48:09;51.10;;;19.75;;
61017;SDS011;48171;51.550;5.434;2022-12-18T14:50:34;53.00;;;19.48;;
61017;SDS011;48171;51.550;5.434;2022-12-18T14:53:00;49.15;;;18.48;;
61017;SDS011;48171;51.550;5.434;2022-12-18T14:55:25;49.20;;;19.27;;
61017;SDS011;48171;51.550;5.434;2022-12-18T14:57:51;50.53;;;19.38;;
61017;SDS011;48171;51.550;5.434;2022-12-18T15:00:19;50.35;;;19.33;;
61017;SDS011;48171;51.550;5.434;2022-12-18T15:02:48;49.42;;;20.00;;
61017;SDS011;48171;51.550;5.434;2022-12-18T15:05:24;49.92;;;19.35;;
61017;SDS011;48171;51.550;5.434;2022-12-18T15:07:53;50.97;;;18.73;;
61017;SDS011;48171;51.550;5.434;2022-12-18T15:10:22;48.28;;;19.58;;
61017;SDS011;48171;51.550;5.434;2022-12-18T15:20:39;56.50;;;19.15;;
61017;SDS011;48171;51.550;5.434;2022-12-18T15:23:12;48.20;;;18.95;;
61017;SDS011;48171;51.550;5.434;2022-12-18T15:25:39;51.22;;;18.88;;
61017;SDS011;48171;51.550;5.434;2022-12-18T15:28:15;57.60;;;19.85;;
61017;SDS011;48171;51.550;5.434;2022-12-18T15:33:46;46.85;;;18.60;;
61017;SDS011;48171;51.550;5.434;2022-12-18T15:36:27;51.00;;;19.80;;
61017;SDS011;48171;51.550;5.434;2022-12-18T15:38:55;48.05;;;18.67;;
61017;SDS011;48171;51.550;5.434;2022-12-18T15:41:22;55.88;;;19.48;;
61017;SDS011;48171;51.550;5.434;2022-12-18T15:43:49;47.88;;;18.45;;
61017;SDS011;48171;51.550;5.434;2022-12-18T15:46:17;50.58;;;19.52;;
61017;SDS011;48171;51.550;5.434;2022-12-18T15:48:44;51.53;;;19.73;;
61017;SDS011;48171;51.550;5.434;2022-12-18T15:51:13;50.17;;;20.23;;
61017;SDS011;48171;51.550;5.434;2022-12-18T15:53:42;47.38;;;19.63;;
61017;SDS011;48171;51.550;5.434;2022-12-18T15:56:11;52.95;;;19.30;;
61017;SDS011;48171;51.550;5.434;2022-12-18T15:58:56;49.53;;;20.45;;
61017;SDS011;48171;51.550;5.434;2022-12-18T16:01:22;53.60;;;20.58;;
61017;SDS011;48171;51.550;5.434;2022-12-18T16:03:50;58.78;;;20.70;;
61017;SDS011;48171;51.550;5.434;2022-12-18T16:06:15;51.25;;;20.77;;
61017;SDS011;48171;51.550;5.434;2022-12-18T16:08:40;49.83;;;20.90;;
61017;SDS011;48171;51.550;5.434;2022-12-18T16:11:08;52.70;;;19.85;;
61017;SDS011;48171;51.550;5.434;2022-12-18T16:14:25;54.13;;;20.67;;
61017;SDS011;48171;51.550;5.434;2022-12-18T16:16:58;46.83;;;19.33;;